createdAt,value
2023-05-12T00:01:24.247Z,17.80
2023-05-12T00:03:53.638Z,19.53
2023-05-12T00:06:21.983Z,19.10
2023-05-12T00:08:49.598Z,17.57
2023-05-12T00:11:18.677Z,17.50
2023-05-12T00:13:46.423Z,17.47
2023-05-12T00:16:15.772Z,17.43
2023-05-12T00:18:43.582Z,17.17
2023-05-12T00:21:12.261Z,17.10
2023-05-12T00:23:39.950Z,17.03
2023-05-12T00:26:08.019Z,16.47
2023-05-12T00:28:36.981Z,16.23
2023-05-12T00:31:05.260Z,15.70
2023-05-12T00:33:33.131Z,15.80
2023-05-12T00:36:03.461Z,15.70
2023-05-12T00:38:31.137Z,17.53
2023-05-12T00:40:58.713Z,17.70
2023-05-12T00:43:26.632Z,16.83
2023-05-12T00:45:55.681Z,16.33
2023-05-12T00:48:23.606Z,15.53
2023-05-12T00:50:51.403Z,16.07
2023-05-12T00:53:19.002Z,17.13
2023-05-12T00:55:46.628Z,17.10
2023-05-12T00:58:14.235Z,16.27
2023-05-12T01:00:41.829Z,16.10
2023-05-12T01:03:10.975Z,16.33
2023-05-12T01:05:48.630Z,16.10
2023-05-12T01:08:18.122Z,15.40
2023-05-12T01:10:46.206Z,16.70
2023-05-12T01:13:14.093Z,15.83
2023-05-12T01:15:47.936Z,16.37
2023-05-12T01:18:20.600Z,15.73
2023-05-12T01:20:48.911Z,15.57
2023-05-12T01:23:20.075Z,15.17
2023-05-12T01:25:50.058Z,15.70
2023-05-12T01:28:19.431Z,14.50
2023-05-12T01:30:47.887Z,16.20
2023-05-12T01:33:15.574Z,14.40
2023-05-12T01:35:43.249Z,15.10
2023-05-12T01:38:10.807Z,14.30
2023-05-12T01:40:38.399Z,14.20
2023-05-12T01:43:05.973Z,15.23
2023-05-12T01:45:34.945Z,15.67
2023-05-12T01:48:02.580Z,15.50
2023-05-12T01:50:30.408Z,15.47
2023-05-12T01:52:57.998Z,15.67
2023-05-12T01:55:25.652Z,15.60
2023-05-12T01:57:53.314Z,15.40
2023-05-12T02:00:21.584Z,15.50
2023-05-12T02:02:51.027Z,15.43
2023-05-12T02:05:18.757Z,15.23
2023-05-12T02:07:46.377Z,15.97
2023-05-12T02:10:13.977Z,15.60
2023-05-12T02:12:41.690Z,16.17
2023-05-12T02:15:10.545Z,16.00
2023-05-12T02:17:38.177Z,15.30
2023-05-12T02:20:08.908Z,15.47
2023-05-12T02:22:36.469Z,16.47
2023-05-12T02:25:04.304Z,16.20
2023-05-12T02:27:32.628Z,16.37
2023-05-12T02:30:00.585Z,15.73
2023-05-12T02:32:28.609Z,15.57
2023-05-12T02:34:56.451Z,14.90
2023-05-12T02:37:25.420Z,16.37
2023-05-12T02:39:53.017Z,15.73
2023-05-12T02:42:20.614Z,15.70
2023-05-12T02:44:48.191Z,15.00
2023-05-12T02:47:15.787Z,15.80
2023-05-12T02:49:43.394Z,15.43
2023-05-12T02:52:10.987Z,17.00
2023-05-12T02:54:39.900Z,17.50
2023-05-12T02:57:08.231Z,17.33
2023-05-12T02:59:35.940Z,16.70
2023-05-12T03:02:05.000Z,17.30
2023-05-12T03:04:33.119Z,14.77
2023-05-12T03:07:00.959Z,17.30
2023-05-12T03:09:28.581Z,16.60
2023-05-12T03:11:57.644Z,15.20
2023-05-12T03:14:26.638Z,16.90
2023-05-12T03:16:54.399Z,16.80
2023-05-12T03:19:22.007Z,16.90
2023-05-12T03:21:49.692Z,16.60
2023-05-12T03:24:17.524Z,18.30
2023-05-12T03:26:45.468Z,14.90
2023-05-12T03:29:14.458Z,17.23
2023-05-12T03:31:42.975Z,17.03
2023-05-12T03:34:10.998Z,17.30
2023-05-12T03:36:38.690Z,17.70
2023-05-12T03:39:08.724Z,17.20
2023-05-12T03:41:36.400Z,16.53
2023-05-12T03:44:05.583Z,18.10
2023-05-12T03:46:34.696Z,18.10
2023-05-12T03:49:02.552Z,17.87
2023-05-12T03:51:30.408Z,18.10
2023-05-12T03:53:58.047Z,17.70
2023-05-12T03:56:25.646Z,17.20
2023-05-12T03:58:53.227Z,17.20
2023-05-12T04:01:20.874Z,18.07
2023-05-12T04:03:49.994Z,17.93
2023-05-12T04:06:17.693Z,17.50
2023-05-12T04:08:45.400Z,17.30
2023-05-12T04:11:13.978Z,17.07
2023-05-12T04:13:41.575Z,18.03
2023-05-12T04:16:09.796Z,17.10
2023-05-12T04:18:37.598Z,17.90
2023-05-12T04:21:06.758Z,16.93
2023-05-12T04:23:34.416Z,17.70
2023-05-12T04:26:04.921Z,17.87
2023-05-12T04:28:32.530Z,17.60
2023-05-12T04:31:03.377Z,17.30
2023-05-12T04:33:31.015Z,17.27
2023-05-12T04:35:58.892Z,17.87
2023-05-12T04:38:28.308Z,17.70
2023-05-12T04:40:59.042Z,17.40
2023-05-12T04:45:59.849Z,17.70
2023-05-12T04:48:28.019Z,15.67
2023-05-12T04:50:55.709Z,16.00
2023-05-12T04:53:23.334Z,15.63
2023-05-12T04:55:52.586Z,16.27
2023-05-12T04:58:20.182Z,16.27
2023-05-12T05:00:47.921Z,15.70
2023-05-12T05:03:15.608Z,15.90
2023-05-12T05:05:43.265Z,15.57
2023-05-12T05:08:10.878Z,15.27
2023-05-12T05:10:38.596Z,16.07
2023-05-12T05:13:07.580Z,14.83
2023-05-12T05:15:35.208Z,14.97
2023-05-12T05:18:03.027Z,14.43
2023-05-12T05:20:32.769Z,12.40
2023-05-12T05:23:01.295Z,14.33
2023-05-12T05:25:29.012Z,13.17
2023-05-12T05:27:56.675Z,14.90
2023-05-12T05:30:25.738Z,14.23
2023-05-12T05:32:53.569Z,13.60
2023-05-12T05:35:21.675Z,14.50
2023-05-12T05:37:50.797Z,13.10
2023-05-12T05:40:18.521Z,13.23
2023-05-12T05:42:46.133Z,13.40
2023-05-12T05:45:13.774Z,12.63
2023-05-12T05:47:43.137Z,13.47
2023-05-12T05:50:11.494Z,12.77
2023-05-12T05:52:39.125Z,12.90
2023-05-12T05:55:07.916Z,12.27
2023-05-12T05:57:35.519Z,12.73
2023-05-12T06:00:04.881Z,13.03
2023-05-12T06:02:33.361Z,12.17
2023-05-12T06:05:02.450Z,12.90
2023-05-12T06:07:30.730Z,12.63
2023-05-12T06:09:59.030Z,11.40
2023-05-12T06:12:26.756Z,12.87
2023-05-12T06:14:54.389Z,12.30
2023-05-12T06:17:22.038Z,11.73
2023-05-12T06:19:50.516Z,12.17
2023-05-12T06:22:19.645Z,11.73
2023-05-12T06:24:47.290Z,12.00
2023-05-12T06:27:14.887Z,11.10
2023-05-12T06:29:42.502Z,11.30
2023-05-12T06:32:10.219Z,11.30
2023-05-12T06:34:37.869Z,13.47
2023-05-12T06:37:05.736Z,14.10
2023-05-12T06:39:34.730Z,13.60
2023-05-12T06:42:02.310Z,11.33
2023-05-12T06:44:29.939Z,13.00
2023-05-12T06:46:57.669Z,11.60
2023-05-12T06:49:25.448Z,11.80
2023-05-12T06:51:53.115Z,11.37
2023-05-12T06:54:20.826Z,11.23
2023-05-12T06:56:49.746Z,12.20
2023-05-12T06:59:19.309Z,11.53
2023-05-12T07:01:47.945Z,11.27
2023-05-12T07:04:15.679Z,12.13
2023-05-12T07:06:43.353Z,10.53
2023-05-12T07:09:11.075Z,11.77
2023-05-12T07:11:38.718Z,10.30
2023-05-12T07:14:07.695Z,12.17
2023-05-12T07:16:35.429Z,11.13
2023-05-12T07:19:03.298Z,10.63
2023-05-12T07:21:30.961Z,10.70
2023-05-12T07:23:59.173Z,10.37
2023-05-12T07:26:28.732Z,10.23
2023-05-12T07:28:56.474Z,8.83
2023-05-12T07:31:25.498Z,9.80
2023-05-12T07:33:53.267Z,10.03
2023-05-12T07:36:22.050Z,10.97
2023-05-12T07:38:49.828Z,9.07
2023-05-12T07:41:18.023Z,10.20
2023-05-12T07:43:46.041Z,10.60
2023-05-12T07:46:13.832Z,9.40
2023-05-12T07:48:42.926Z,10.40
2023-05-12T07:51:10.648Z,9.33
2023-05-12T07:53:38.240Z,9.37
2023-05-12T07:56:08.091Z,9.57
2023-05-12T07:58:35.700Z,10.30
2023-05-12T08:01:05.958Z,9.87
2023-05-12T08:03:33.887Z,8.80
2023-05-12T08:06:03.513Z,9.07
2023-05-12T08:08:31.662Z,8.30
2023-05-12T08:10:59.284Z,9.27
2023-05-12T08:13:27.265Z,8.80
2023-05-12T08:15:55.155Z,8.20
2023-05-12T08:18:22.760Z,9.17
2023-05-12T08:20:50.876Z,8.43
2023-05-12T08:23:20.319Z,10.00
2023-05-12T08:25:48.641Z,8.90
2023-05-12T08:28:16.288Z,9.60
2023-05-12T08:30:45.111Z,9.53
2023-05-12T08:33:12.988Z,8.80
2023-05-12T08:35:40.782Z,10.10
2023-05-12T08:38:09.039Z,8.80
2023-05-12T08:40:46.159Z,8.93
2023-05-12T08:43:24.278Z,8.03
2023-05-12T08:45:52.097Z,9.77
2023-05-12T08:48:22.529Z,8.73
2023-05-12T08:50:52.343Z,8.20
2023-05-12T08:53:22.125Z,7.77
2023-05-12T08:57:08.190Z,8.30
2023-05-12T08:58:42.164Z,7.50
2023-05-12T09:01:14.700Z,8.37
2023-05-12T09:03:43.264Z,8.17
2023-05-12T09:06:12.552Z,8.37
2023-05-12T09:08:41.739Z,9.10
2023-05-12T09:11:12.925Z,7.97
2023-05-12T09:13:55.671Z,8.23
2023-05-12T09:16:25.985Z,8.07
2023-05-12T09:18:55.387Z,7.20
2023-05-12T09:21:23.759Z,8.70
2023-05-12T09:23:56.330Z,7.77
2023-05-12T09:26:26.363Z,7.50
2023-05-12T09:28:55.865Z,7.73
2023-05-12T09:31:25.930Z,8.30
2023-05-12T09:33:53.643Z,8.57
2023-05-12T09:36:22.615Z,6.73
2023-05-12T09:38:59.960Z,7.13
2023-05-12T09:41:28.933Z,8.20
2023-05-12T09:43:56.705Z,7.00
2023-05-12T09:46:26.056Z,6.83
2023-05-12T09:48:56.893Z,7.43
2023-05-12T09:51:25.375Z,8.20
2023-05-12T09:53:53.355Z,6.57
2023-05-12T09:56:21.306Z,7.53
2023-05-12T09:58:50.886Z,7.50
2023-05-12T10:01:23.712Z,6.90
2023-05-12T10:03:54.870Z,7.90
2023-05-12T10:06:28.227Z,7.27
2023-05-12T10:09:05.334Z,7.87
2023-05-12T10:11:33.664Z,6.70
2023-05-12T10:14:03.092Z,6.47
2023-05-12T10:16:31.299Z,6.37
2023-05-12T10:19:00.243Z,6.77
2023-05-12T10:21:28.569Z,5.90
2023-05-12T10:23:57.837Z,5.50
2023-05-12T10:26:25.677Z,5.80
2023-05-12T10:28:54.079Z,6.70
2023-05-12T10:31:24.395Z,5.80
2023-05-12T10:33:59.733Z,5.63
2023-05-12T10:36:28.001Z,5.60
2023-05-12T10:38:56.208Z,5.20
2023-05-12T10:41:31.548Z,5.93
2023-05-12T10:43:59.429Z,5.67
2023-05-12T10:46:30.106Z,5.03
2023-05-12T10:49:01.184Z,5.60
2023-05-12T10:51:31.100Z,5.10
2023-05-12T10:54:00.984Z,5.47
2023-05-12T10:56:30.513Z,4.60
2023-05-12T10:59:19.031Z,5.33
2023-05-12T11:02:00.987Z,5.83
2023-05-12T11:04:42.064Z,5.53
2023-05-12T11:07:14.104Z,5.53
2023-05-12T11:09:56.787Z,6.10
2023-05-12T11:12:27.981Z,5.97
2023-05-12T11:14:55.927Z,5.60
2023-05-12T11:17:25.500Z,5.70
2023-05-12T11:19:53.602Z,5.20
2023-05-12T11:22:22.794Z,5.00
2023-05-12T11:24:52.422Z,5.30
2023-05-12T11:27:22.521Z,4.80
2023-05-12T11:29:57.815Z,5.40
2023-05-12T11:32:27.321Z,5.43
2023-05-12T11:34:55.060Z,4.73
2023-05-12T11:37:23.844Z,4.43
2023-05-12T11:39:52.890Z,5.07
2023-05-12T11:42:22.314Z,5.33
2023-05-12T11:44:51.998Z,4.90
2023-05-12T11:47:21.200Z,5.30
2023-05-12T11:49:52.009Z,5.57
2023-05-12T11:52:23.312Z,5.20
2023-05-12T11:54:51.992Z,5.47
2023-05-12T11:57:26.989Z,6.20
2023-05-12T11:59:58.938Z,4.90
2023-05-12T12:02:27.345Z,5.40
2023-05-12T12:04:56.816Z,5.17
2023-05-12T12:07:31.669Z,5.47
2023-05-12T12:10:00.838Z,6.60
2023-05-12T12:12:28.503Z,5.27
2023-05-12T12:14:59.911Z,5.37
2023-05-12T12:17:30.839Z,5.60
2023-05-12T12:20:00.139Z,5.30
2023-05-12T12:22:27.924Z,5.43
2023-05-12T12:24:55.540Z,5.63
2023-05-12T12:27:23.173Z,5.40
2023-05-12T12:29:51.301Z,5.27
2023-05-12T12:32:18.940Z,6.00
2023-05-12T12:34:48.391Z,4.50
2023-05-12T12:37:17.628Z,4.73
2023-05-12T12:39:47.574Z,4.80
2023-05-12T12:42:15.697Z,5.67
2023-05-12T12:44:43.786Z,5.20
2023-05-12T12:47:11.501Z,5.40
2023-05-12T12:49:39.086Z,5.07
2023-05-12T12:52:07.275Z,5.80
2023-05-12T12:54:36.366Z,5.40
2023-05-12T12:57:04.553Z,5.80
2023-05-12T12:59:32.147Z,6.07
2023-05-12T13:02:00.537Z,5.80
2023-05-12T13:04:28.182Z,6.33
2023-05-12T13:06:55.754Z,5.60
2023-05-12T13:09:23.420Z,5.73
2023-05-12T13:11:52.868Z,6.03
2023-05-12T13:14:21.505Z,6.43
2023-05-12T13:16:49.166Z,6.20
2023-05-12T13:19:17.492Z,5.57
2023-05-12T13:21:45.299Z,6.00
2023-05-12T13:24:12.927Z,6.83
2023-05-12T13:26:40.530Z,5.80
2023-05-12T13:29:09.550Z,6.23
2023-05-12T13:31:38.646Z,5.17
2023-05-12T13:34:06.222Z,5.50
2023-05-12T13:36:34.728Z,5.50
2023-05-12T13:39:03.528Z,5.80
2023-05-12T13:41:31.556Z,5.40
2023-05-12T13:43:59.162Z,5.30
2023-05-12T13:46:28.115Z,5.30
2023-05-12T13:48:55.936Z,5.90
2023-05-12T13:51:23.903Z,5.77
2023-05-12T13:53:51.522Z,4.70
2023-05-12T13:56:19.245Z,5.50
2023-05-12T13:58:46.859Z,5.87
2023-05-12T14:01:14.520Z,5.00
2023-05-12T14:03:43.584Z,5.30
2023-05-12T14:06:12.529Z,5.60
2023-05-12T14:08:41.483Z,5.37
2023-05-12T14:11:09.976Z,5.40
2023-05-12T14:13:37.668Z,5.10
2023-05-12T14:16:06.166Z,5.53
2023-05-12T14:18:33.909Z,5.03
2023-05-12T14:21:02.966Z,6.07
2023-05-12T14:23:30.585Z,5.10
2023-05-12T14:25:58.164Z,5.67
2023-05-12T14:28:25.860Z,6.07
2023-05-12T14:30:53.573Z,6.13
2023-05-12T14:33:21.475Z,5.43
2023-05-12T14:35:59.313Z,5.53
2023-05-12T14:38:35.741Z,5.40
2023-05-12T14:41:03.965Z,4.90
2023-05-12T14:43:31.681Z,5.70
2023-05-12T14:45:59.313Z,5.40
2023-05-12T14:48:27.146Z,5.63
2023-05-12T14:50:55.575Z,5.37
2023-05-12T14:53:23.773Z,5.73
2023-05-12T14:55:52.959Z,5.50
2023-05-12T14:58:21.587Z,5.37
2023-05-12T15:00:51.020Z,5.63
2023-05-12T15:03:20.893Z,5.30
2023-05-12T15:06:04.773Z,5.27
2023-05-12T15:08:33.839Z,4.83
2023-05-12T15:11:02.873Z,5.83
2023-05-12T15:13:30.564Z,6.10
2023-05-12T15:15:58.185Z,5.10
2023-05-12T15:18:25.963Z,5.10
2023-05-12T15:20:53.672Z,5.83
2023-05-12T15:23:22.114Z,5.20
2023-05-12T15:25:49.792Z,5.23
2023-05-12T15:28:18.797Z,5.43
2023-05-12T15:30:54.723Z,5.90
2023-05-12T15:33:22.353Z,5.50
2023-05-12T15:35:49.996Z,5.03
2023-05-12T15:38:17.856Z,5.23
2023-05-12T15:40:45.785Z,4.60
2023-05-12T15:43:13.372Z,5.30
2023-05-12T15:45:42.328Z,4.50
2023-05-12T15:48:10.685Z,6.20
2023-05-12T15:50:38.379Z,5.60
2023-05-12T15:53:06.909Z,6.43
2023-05-12T15:55:34.629Z,5.73
2023-05-12T15:58:03.499Z,6.60
2023-05-12T16:00:31.190Z,5.73
2023-05-12T16:03:01.870Z,5.80
2023-05-12T16:05:29.624Z,5.57
2023-05-12T16:07:57.367Z,6.47
2023-05-12T16:10:24.933Z,5.87
2023-05-12T16:12:52.592Z,4.87
2023-05-12T16:15:20.721Z,5.33
2023-05-12T16:17:48.775Z,5.67
2023-05-12T16:20:18.154Z,5.50
2023-05-12T16:22:45.805Z,5.90
2023-05-12T16:25:13.387Z,5.57
2023-05-12T16:27:41.080Z,5.50
2023-05-12T16:30:09.764Z,4.93
2023-05-12T16:32:37.477Z,5.17
2023-05-12T16:35:05.439Z,4.63
2023-05-12T16:37:34.461Z,5.30
2023-05-12T16:40:02.379Z,5.20
2023-05-12T16:42:30.853Z,5.70
2023-05-12T16:44:58.730Z,4.90
2023-05-12T16:47:26.477Z,5.57
2023-05-12T16:49:54.990Z,5.80
2023-05-12T16:52:22.620Z,5.40
2023-05-12T16:54:51.845Z,5.87
2023-05-12T16:57:20.127Z,5.87
2023-05-12T16:59:48.494Z,5.33
2023-05-12T17:02:16.167Z,5.80
2023-05-12T17:04:44.629Z,5.90
2023-05-12T17:07:12.367Z,5.30
2023-05-12T17:09:40.018Z,5.77
2023-05-12T17:12:09.818Z,5.40
2023-05-12T17:14:37.438Z,5.53
2023-05-12T17:17:05.195Z,5.17
2023-05-12T17:19:33.350Z,5.60
2023-05-12T17:22:01.225Z,5.17
2023-05-12T17:24:29.020Z,5.67
2023-05-12T17:26:57.579Z,6.03
2023-05-12T17:29:26.805Z,5.43
2023-05-12T17:31:54.449Z,6.10
2023-05-12T17:34:22.062Z,5.13
2023-05-12T17:36:50.089Z,6.00
2023-05-12T17:39:17.711Z,7.17
2023-05-12T17:41:45.288Z,6.47
2023-05-12T17:44:12.898Z,6.03
2023-05-12T17:46:41.881Z,6.67
2023-05-12T17:49:09.530Z,6.47
2023-05-12T17:51:37.105Z,6.43
2023-05-12T17:54:04.763Z,7.50
2023-05-12T17:56:32.447Z,6.90
2023-05-12T17:59:00.080Z,7.00
2023-05-12T18:01:27.803Z,7.57
2023-05-12T18:03:56.999Z,7.20
2023-05-12T18:06:24.703Z,6.20
2023-05-12T18:08:52.293Z,5.83
2023-05-12T18:11:19.879Z,6.23
2023-05-12T18:13:47.484Z,5.80
2023-05-12T18:16:25.249Z,6.30
2023-05-12T18:18:57.303Z,6.30
2023-05-12T18:21:25.200Z,6.40
2023-05-12T18:23:52.854Z,6.17
2023-05-12T18:26:20.758Z,6.03
2023-05-12T18:28:48.525Z,6.70
2023-05-12T18:31:19.247Z,6.10
2023-05-12T18:33:47.822Z,6.53
2023-05-12T18:36:17.230Z,6.60
2023-05-12T18:38:45.336Z,6.20
2023-05-12T18:41:13.253Z,6.60
2023-05-12T18:43:41.830Z,7.07
2023-05-12T18:46:09.499Z,6.43
2023-05-12T18:48:37.310Z,6.20
2023-05-12T18:51:05.441Z,7.20
2023-05-12T18:53:34.691Z,6.00
2023-05-12T18:56:02.402Z,6.87
2023-05-12T18:58:30.036Z,6.13
2023-05-12T19:00:58.019Z,6.87
2023-05-12T19:03:25.659Z,6.80
2023-05-12T19:05:53.655Z,6.60
2023-05-12T19:08:21.361Z,6.93
2023-05-12T19:10:50.382Z,7.13
2023-05-12T19:13:18.004Z,6.77
2023-05-12T19:15:45.655Z,7.40
2023-05-12T19:18:13.304Z,7.23
2023-05-12T19:20:40.981Z,6.60
2023-05-12T19:23:08.666Z,7.70
2023-05-12T19:25:36.268Z,7.53
2023-05-12T19:28:05.918Z,7.23
2023-05-12T19:30:33.643Z,7.80
2023-05-12T19:33:01.297Z,7.23
2023-05-12T19:35:28.985Z,7.67
2023-05-12T19:37:56.583Z,7.30
2023-05-12T19:40:24.261Z,7.70
2023-05-12T19:42:52.965Z,7.47
2023-05-12T19:45:22.302Z,7.03
2023-05-12T19:47:50.245Z,7.40
2023-05-12T19:50:18.685Z,7.93
2023-05-12T19:52:46.359Z,7.57
2023-05-12T19:55:13.980Z,8.60
2023-05-12T19:57:42.260Z,8.60
2023-05-12T20:00:11.022Z,7.47
2023-05-12T20:02:40.883Z,8.37
2023-05-12T20:05:09.213Z,7.90
2023-05-12T20:07:36.849Z,8.87
2023-05-12T20:10:04.960Z,8.63
2023-05-12T20:12:33.000Z,8.17
2023-05-12T20:15:00.584Z,8.30
2023-05-12T20:17:28.353Z,7.80
2023-05-12T20:19:57.361Z,8.40
2023-05-12T20:22:25.123Z,8.97
2023-05-12T20:24:52.780Z,8.47
2023-05-12T20:27:20.515Z,8.20
2023-05-12T20:29:49.030Z,8.70
2023-05-12T20:32:16.733Z,7.60
2023-05-12T20:34:44.639Z,8.33
2023-05-12T20:37:13.972Z,7.80
2023-05-12T20:39:41.630Z,8.30
2023-05-12T20:42:10.021Z,7.23
2023-05-12T20:44:37.879Z,7.77
2023-05-12T20:47:06.446Z,8.27
2023-05-12T20:49:34.059Z,7.50
2023-05-12T20:52:01.675Z,8.07
2023-05-12T20:54:30.620Z,8.83
2023-05-12T20:56:58.231Z,7.50
2023-05-12T20:59:25.841Z,8.57
2023-05-12T21:01:53.920Z,7.77
2023-05-12T21:04:21.736Z,8.40
2023-05-12T21:06:49.868Z,7.50
2023-05-12T21:09:18.885Z,7.63
2023-05-12T21:11:47.962Z,8.20
2023-05-12T21:14:15.599Z,7.93
2023-05-12T21:16:43.241Z,8.43
2023-05-12T21:19:10.919Z,8.33
2023-05-12T21:21:38.530Z,8.20
2023-05-12T21:24:06.909Z,9.00
2023-05-12T21:26:34.538Z,9.40
2023-05-12T21:29:03.613Z,8.57
2023-05-12T21:31:31.406Z,8.60
2023-05-12T21:33:59.015Z,9.40
2023-05-12T21:36:26.924Z,9.17
2023-05-12T21:38:54.510Z,8.40
2023-05-12T21:41:22.370Z,8.70
2023-05-12T21:43:49.944Z,8.57
2023-05-12T21:46:18.966Z,8.30
2023-05-12T21:48:47.036Z,9.90
2023-05-12T21:51:14.849Z,8.80
2023-05-12T21:53:42.935Z,9.17
2023-05-12T21:56:10.583Z,9.07
2023-05-12T21:58:38.584Z,8.60
2023-05-12T22:01:06.319Z,8.30
2023-05-12T22:03:35.308Z,9.13
2023-05-12T22:06:02.925Z,8.90
2023-05-12T22:08:30.502Z,9.20
2023-05-12T22:10:58.156Z,9.23
2023-05-12T22:13:25.753Z,8.70
2023-05-12T22:15:53.447Z,9.20
2023-05-12T22:18:21.154Z,8.33
2023-05-12T22:20:50.072Z,8.80
2023-05-12T22:23:17.659Z,8.50
2023-05-12T22:25:45.234Z,8.87
2023-05-12T22:28:12.828Z,9.17
2023-05-12T22:30:43.400Z,8.60
2023-05-12T22:33:11.097Z,8.10
2023-05-12T22:35:38.772Z,8.17
2023-05-12T22:38:07.767Z,8.47
2023-05-12T22:40:35.476Z,8.57
2023-05-12T22:43:03.107Z,8.73
2023-05-12T22:45:30.876Z,9.87
2023-05-12T22:47:58.911Z,8.17
2023-05-12T22:50:26.608Z,9.20
2023-05-12T22:52:57.132Z,8.90
2023-05-12T22:55:28.175Z,8.60
2023-05-12T22:57:55.756Z,9.03
2023-05-12T23:00:23.529Z,9.63
2023-05-12T23:02:51.354Z,9.20
2023-05-12T23:05:19.170Z,8.50
2023-05-12T23:07:46.886Z,9.67
2023-05-12T23:10:14.890Z,8.40
2023-05-12T23:12:43.843Z,9.10
2023-05-12T23:15:12.146Z,9.33
2023-05-12T23:17:39.770Z,9.03
2023-05-12T23:20:09.079Z,9.87
2023-05-12T23:22:36.690Z,9.93
2023-05-12T23:25:04.376Z,10.57
2023-05-12T23:27:31.997Z,9.57
2023-05-12T23:30:00.973Z,9.57
2023-05-12T23:32:29.090Z,10.60
2023-05-12T23:34:56.854Z,10.90
2023-05-12T23:37:25.368Z,10.17
2023-05-12T23:39:52.992Z,9.77
2023-05-12T23:42:20.592Z,10.77
2023-05-12T23:44:48.239Z,10.97
2023-05-12T23:47:17.858Z,10.87
2023-05-12T23:49:45.441Z,11.50
2023-05-12T23:52:13.005Z,11.03
2023-05-12T23:54:40.645Z,11.90
2023-05-12T23:57:08.265Z,11.53
2023-05-12T23:59:36.148Z,11.10
